This is the latest recevied weather packets stored in our database for station/object DB0NLS-15. If no packets are shown the sender has not sent any weather packets the latest 10 day(s).
| Time | Temp. | Humidity | Pressure | Rain* | Wind** | Luminosity | Snow |
|---|---|---|---|---|---|---|---|
| 1777617364 | 12.78° C | 59% | 1018 hPa | 0 mm | - | - | - |
| 1777616761 | 12.22° C | 60% | 1018.1 hPa | 0 mm | - | - | - |
| 1777616159 | 11.67° C | 55% | 1018 hPa | 0 mm | - | - | - |
| 1777615556 | 11.11° C | 56% | 1018.1 hPa | 0 mm | - | - | - |
| 1777614953 | 10.56° C | 58% | 1018 hPa | 0 mm | - | - | - |
| 1777614351 | 10° C | 62% | 1018.1 hPa | 0 mm | - | - | - |
| 1777613748 | 8.89° C | 64% | 1018.1 hPa | 0 mm | - | - | - |
| 1777613145 | 8.33° C | 66% | 1018 hPa | 0 mm | - | - | - |
| 1777612542 | 7.22° C | 68% | 1018.1 hPa | 0 mm | - | - | - |
| 1777611940 | 6.67° C | 70% | 1018 hPa | 0 mm | - | - | - |
| 1777611337 | 5.56° C | 72% | 1017.9 hPa | 0 mm | - | - | - |
| 1777610734 | 5° C | 74% | 1017.9 hPa | 0 mm | - | - | - |
| 1777610132 | 4.44° C | 77% | 1017.9 hPa | 0 mm | - | - | - |
| 1777609529 | 3.89° C | 79% | 1017.9 hPa | 0 mm | - | - | - |
| 1777608927 | 3.33° C | 80% | 1017.9 hPa | 0 mm | - | - | - |
| 1777608324 | 3.33° C | 79% | 1017.8 hPa | 0 mm | - | - | - |
| 1777607721 | 3.33° C | 80% | 1017.8 hPa | 0 mm | - | - | - |
| 1777607119 | 3.89° C | 79% | 1017.8 hPa | 0 mm | - | - | - |
| 1777606516 | 3.89° C | 79% | 1017.8 hPa | 0 mm | - | - | - |
| 1777605974 | 4.44° C | 77% | 1017.7 hPa | 0 mm | - | - | - |
| 1777605371 | 3.89° C | 78% | 1017.7 hPa | 0 mm | - | - | - |
| 1777604768 | 4.44° C | 77% | 1017.7 hPa | 0 mm | - | - | - |
| 1777604166 | 3.89° C | 77% | 1017.7 hPa | 0 mm | - | - | - |
| 1777603563 | 3.89° C | 78% | 1017.6 hPa | 0 mm | - | - | - |
| 1777602961 | 3.89° C | 77% | 1017.7 hPa | 0 mm | - | - | - |
* Rain latest hour (hover to see other rain measurements)
** Current wind speed in m/s (hover to see current wind gust speed)